createdAt,value
2017-10-14T00:00:29.983Z,15.02
2017-10-14T00:01:36.015Z,15.04
2017-10-14T00:02:42.192Z,15.06
2017-10-14T00:03:48.089Z,15.06
2017-10-14T00:04:54.077Z,15.07
2017-10-14T00:06:00.034Z,15.07
2017-10-14T00:07:05.684Z,15.05
2017-10-14T00:08:11.569Z,15.06
2017-10-14T00:09:17.529Z,15.05
2017-10-14T00:10:24.243Z,15.05
2017-10-14T00:11:30.066Z,15.04
2017-10-14T00:12:35.645Z,15.03
2017-10-14T00:13:41.457Z,15.00
2017-10-14T00:14:47.222Z,14.96
2017-10-14T00:15:52.804Z,14.93
2017-10-14T00:16:58.590Z,14.90
2017-10-14T00:18:04.409Z,14.87
2017-10-14T00:19:10.188Z,14.85
2017-10-14T00:20:15.773Z,14.82
2017-10-14T00:21:22.292Z,14.84
2017-10-14T00:22:28.069Z,14.82
2017-10-14T00:23:34.583Z,14.81
2017-10-14T00:24:40.363Z,14.82
2017-10-14T00:25:46.888Z,14.84
2017-10-14T00:26:52.647Z,14.84
2017-10-14T00:27:58.426Z,14.83
2017-10-14T00:29:04.945Z,14.81
2017-10-14T00:30:12.241Z,14.81
2017-10-14T00:31:18.773Z,14.77
2017-10-14T00:32:25.098Z,14.76
2017-10-14T00:33:30.862Z,14.71
2017-10-14T00:34:36.624Z,14.68
2017-10-14T00:35:42.423Z,14.68
2017-10-14T00:36:48.183Z,14.62
2017-10-14T00:37:53.944Z,14.61
2017-10-14T00:38:59.704Z,14.59
2017-10-14T00:40:05.484Z,14.59
2017-10-14T00:41:11.364Z,14.59
2017-10-14T00:42:16.936Z,14.56
2017-10-14T00:43:23.477Z,14.56
2017-10-14T00:44:29.567Z,14.59
2017-10-14T00:45:35.133Z,14.59
2017-10-14T00:46:40.916Z,14.62
2017-10-14T00:47:47.432Z,14.60
2017-10-14T00:48:53.189Z,14.58
2017-10-14T00:49:58.990Z,14.57
2017-10-14T00:51:05.342Z,14.53
2017-10-14T00:52:11.136Z,14.52
2017-10-14T00:53:16.912Z,14.53
2017-10-14T00:54:23.439Z,14.55
2017-10-14T00:55:28.504Z,14.56
2017-10-14T00:56:33.919Z,14.58
2017-10-14T00:57:39.796Z,14.58
2017-10-14T00:58:45.224Z,14.59
2017-10-14T00:59:50.363Z,14.57
2017-10-14T01:00:55.787Z,14.52
2017-10-14T01:02:01.937Z,14.48
2017-10-14T01:03:07.727Z,14.47
2017-10-14T01:04:13.494Z,14.45
2017-10-14T01:05:20.241Z,14.44
2017-10-14T01:06:26.424Z,14.43
2017-10-14T01:07:32.960Z,14.42
2017-10-14T01:08:38.747Z,14.37
2017-10-14T01:09:44.557Z,14.36
2017-10-14T01:10:50.734Z,14.32
2017-10-14T01:11:56.504Z,14.32
2017-10-14T01:13:02.269Z,14.31
2017-10-14T01:14:07.377Z,14.32
2017-10-14T01:15:13.137Z,14.33
2017-10-14T01:16:18.906Z,14.33
2017-10-14T01:17:25.450Z,14.31
2017-10-14T01:18:32.725Z,14.31
2017-10-14T01:19:38.589Z,14.32
2017-10-14T01:20:44.236Z,14.28
2017-10-14T01:21:49.312Z,14.27
2017-10-14T01:22:55.008Z,14.27
2017-10-14T01:24:00.073Z,14.25
2017-10-14T01:25:05.532Z,14.22
2017-10-14T01:26:12.131Z,14.18
2017-10-14T01:27:17.535Z,14.17
2017-10-14T01:28:23.709Z,14.15
2017-10-14T01:29:29.121Z,14.15
2017-10-14T01:30:35.667Z,14.17
2017-10-14T01:31:41.085Z,14.16
2017-10-14T01:32:46.153Z,14.16
2017-10-14T01:33:52.332Z,14.15
2017-10-14T01:34:58.104Z,14.15
2017-10-14T01:36:03.202Z,14.13
2017-10-14T01:37:08.625Z,14.14
2017-10-14T01:38:14.058Z,14.10
2017-10-14T01:39:19.125Z,14.06
2017-10-14T01:40:24.192Z,14.04
2017-10-14T01:41:30.399Z,14.03
2017-10-14T01:42:35.822Z,14.01
2017-10-14T01:43:41.330Z,14.01
2017-10-14T01:44:46.396Z,13.97
2017-10-14T01:45:51.477Z,13.95
2017-10-14T01:46:57.260Z,13.97
2017-10-14T01:48:02.544Z,13.93
2017-10-14T01:49:07.949Z,13.93
2017-10-14T01:50:13.035Z,13.96
2017-10-14T01:51:18.101Z,13.94
2017-10-14T01:52:23.540Z,13.92
2017-10-14T01:53:29.382Z,13.98
2017-10-14T01:54:35.218Z,13.99
2017-10-14T01:55:40.280Z,14.01
2017-10-14T01:56:45.352Z,14.04
2017-10-14T01:57:52.671Z,14.05
2017-10-14T01:58:58.846Z,14.02
2017-10-14T02:00:04.616Z,14.03
2017-10-14T02:01:10.413Z,14.03
2017-10-14T02:02:16.173Z,14.03
2017-10-14T02:03:21.968Z,14.03
2017-10-14T02:04:27.733Z,14.06
2017-10-14T02:05:33.495Z,14.10
2017-10-14T02:06:39.272Z,14.16
2017-10-14T02:07:45.079Z,14.20
2017-10-14T02:08:50.885Z,14.25
2017-10-14T02:09:57.224Z,14.31
2017-10-14T02:11:02.988Z,14.34
2017-10-14T02:12:09.518Z,14.33
2017-10-14T02:13:15.276Z,14.37
2017-10-14T02:14:21.843Z,14.40
2017-10-14T02:15:28.368Z,14.43
2017-10-14T02:16:34.142Z,14.46
2017-10-14T02:17:39.930Z,14.42
2017-10-14T02:18:45.710Z,14.44
2017-10-14T02:19:51.492Z,14.48
2017-10-14T02:20:57.253Z,14.47
2017-10-14T02:22:03.016Z,14.49
2017-10-14T02:23:08.777Z,14.48
2017-10-14T02:24:14.087Z,14.48
2017-10-14T02:25:19.665Z,14.53
2017-10-14T02:26:26.195Z,14.54
2017-10-14T02:27:31.958Z,14.54
2017-10-14T02:28:37.716Z,14.58
2017-10-14T02:29:44.292Z,14.61
2017-10-14T02:30:50.084Z,14.64
2017-10-14T02:31:56.425Z,14.68
2017-10-14T02:33:02.003Z,14.71
2017-10-14T02:34:08.532Z,14.75
2017-10-14T02:35:14.302Z,14.75
2017-10-14T02:36:20.858Z,14.76
2017-10-14T02:37:27.387Z,14.82
2017-10-14T02:38:33.156Z,14.82
2017-10-14T02:39:39.696Z,14.84
2017-10-14T02:40:45.474Z,14.86
2017-10-14T02:41:52.021Z,14.86
2017-10-14T02:42:58.570Z,14.85
2017-10-14T02:44:04.132Z,14.89
2017-10-14T02:45:10.694Z,14.90
2017-10-14T02:46:17.253Z,14.90
2017-10-14T02:47:23.808Z,14.89
2017-10-14T02:48:30.337Z,14.91
2017-10-14T02:49:36.104Z,14.90
2017-10-14T02:50:42.645Z,14.89
2017-10-14T02:51:48.440Z,14.89
2017-10-14T02:52:54.020Z,14.89
2017-10-14T02:53:59.611Z,14.93
2017-10-14T02:55:05.378Z,14.90
2017-10-14T02:56:11.156Z,14.85
2017-10-14T02:57:16.729Z,14.87
2017-10-14T02:58:22.773Z,14.87
2017-10-14T02:59:28.534Z,14.89
2017-10-14T03:00:34.300Z,14.91
2017-10-14T03:01:40.061Z,14.92
2017-10-14T03:02:45.946Z,14.97
2017-10-14T03:03:51.525Z,14.96
2017-10-14T03:04:57.371Z,14.95
2017-10-14T03:06:03.132Z,14.95
2017-10-14T03:07:08.889Z,14.97
2017-10-14T03:08:15.426Z,14.98
2017-10-14T03:09:21.210Z,15.00
2017-10-14T03:10:26.976Z,15.02
2017-10-14T03:11:32.746Z,15.03
2017-10-14T03:12:39.268Z,15.05
2017-10-14T03:13:45.028Z,15.12
2017-10-14T03:14:50.640Z,15.12
2017-10-14T03:15:56.443Z,15.12
2017-10-14T03:17:02.013Z,15.21
2017-10-14T03:18:07.804Z,15.26
2017-10-14T03:19:13.609Z,15.27
2017-10-14T03:20:19.431Z,15.31
2017-10-14T03:21:25.193Z,15.32
2017-10-14T03:22:30.960Z,15.34
2017-10-14T03:23:36.728Z,15.34
2017-10-14T03:24:42.503Z,15.37
2017-10-14T03:25:48.288Z,15.42
2017-10-14T03:26:54.057Z,15.41
2017-10-14T03:27:59.804Z,15.38
2017-10-14T03:29:06.336Z,15.43
2017-10-14T03:30:12.106Z,15.46
2017-10-14T03:31:18.711Z,15.46
2017-10-14T03:32:24.492Z,15.42
2017-10-14T03:33:30.257Z,15.44
2017-10-14T03:34:36.780Z,15.44
2017-10-14T03:35:42.559Z,15.51
2017-10-14T03:36:49.113Z,15.54
2017-10-14T03:37:55.648Z,15.54
2017-10-14T03:39:02.177Z,15.55
2017-10-14T03:40:07.956Z,15.56
2017-10-14T03:41:13.719Z,15.57
2017-10-14T03:42:20.276Z,15.58
2017-10-14T03:43:26.816Z,15.57
2017-10-14T03:44:32.576Z,15.58
2017-10-14T03:45:39.124Z,15.58
2017-10-14T03:46:44.916Z,15.58
2017-10-14T03:47:50.714Z,15.55
2017-10-14T03:48:56.474Z,15.53
2017-10-14T03:50:03.004Z,15.57
2017-10-14T03:51:09.540Z,15.57
2017-10-14T03:52:15.353Z,15.53
2017-10-14T03:53:21.137Z,15.53
2017-10-14T03:54:26.918Z,15.56
2017-10-14T03:55:33.246Z,15.62
2017-10-14T03:56:39.035Z,15.60
2017-10-14T03:57:45.551Z,15.63
2017-10-14T03:58:51.146Z,15.60
2017-10-14T03:59:56.913Z,15.63
2017-10-14T04:01:02.695Z,15.59
2017-10-14T04:02:09.252Z,15.61
2017-10-14T04:03:15.853Z,15.62
2017-10-14T04:04:21.759Z,15.58
2017-10-14T04:05:28.276Z,15.62
2017-10-14T04:06:33.865Z,15.59
2017-10-14T04:07:39.641Z,15.56
2017-10-14T04:08:45.660Z,15.57
2017-10-14T04:09:51.451Z,15.56
2017-10-14T04:10:57.256Z,15.58
2017-10-14T04:12:03.503Z,15.54
2017-10-14T04:13:09.266Z,15.52
2017-10-14T04:14:15.034Z,15.53
2017-10-14T04:15:20.826Z,15.57
2017-10-14T04:16:26.583Z,15.57
2017-10-14T04:17:32.371Z,15.55
2017-10-14T04:18:38.146Z,15.53
2017-10-14T04:19:43.908Z,15.51
2017-10-14T04:20:49.524Z,15.55
2017-10-14T04:21:56.056Z,15.56
2017-10-14T04:23:01.649Z,15.55
2017-10-14T04:24:07.447Z,15.55
2017-10-14T04:25:13.196Z,15.51
2017-10-14T04:26:19.760Z,15.50
2017-10-14T04:27:26.295Z,15.47
2017-10-14T04:28:32.057Z,15.49
2017-10-14T04:29:38.382Z,15.50
2017-10-14T04:30:44.146Z,15.52
2017-10-14T04:31:50.488Z,15.48
2017-10-14T04:32:56.249Z,15.54
2017-10-14T04:34:02.797Z,15.57
2017-10-14T04:35:09.327Z,15.57
2017-10-14T04:36:15.095Z,15.57
2017-10-14T04:37:20.881Z,15.57
2017-10-14T04:38:26.644Z,15.55
2017-10-14T04:39:32.413Z,15.53
2017-10-14T04:40:38.188Z,15.53
2017-10-14T04:41:43.768Z,15.53
2017-10-14T04:42:49.368Z,15.53
2017-10-14T04:43:55.136Z,15.55
2017-10-14T04:45:00.904Z,15.54
2017-10-14T04:46:06.665Z,15.56
2017-10-14T04:47:13.197Z,15.57
2017-10-14T04:48:18.988Z,15.55
2017-10-14T04:49:24.572Z,15.57
2017-10-14T04:50:30.384Z,15.61
2017-10-14T04:51:36.157Z,15.65
2017-10-14T04:52:41.970Z,15.68
2017-10-14T04:53:47.763Z,15.71
2017-10-14T04:54:54.283Z,15.68
2017-10-14T04:56:00.053Z,15.66
2017-10-14T04:57:05.816Z,15.65
2017-10-14T04:58:12.343Z,15.67
2017-10-14T04:59:18.144Z,15.66
2017-10-14T05:00:24.676Z,15.67
2017-10-14T05:01:30.245Z,15.68
2017-10-14T05:02:36.020Z,15.63
2017-10-14T05:03:41.808Z,15.67
2017-10-14T05:04:48.360Z,15.66
2017-10-14T05:05:54.705Z,15.64
2017-10-14T05:07:00.477Z,15.63
2017-10-14T05:08:07.002Z,15.65
2017-10-14T05:09:12.798Z,15.68
2017-10-14T05:10:18.403Z,15.70
2017-10-14T05:11:24.933Z,15.65
2017-10-14T05:12:31.460Z,15.65
2017-10-14T05:13:37.255Z,15.65
2017-10-14T05:14:43.280Z,15.71
2017-10-14T05:15:49.060Z,15.76
2017-10-14T05:16:55.594Z,15.80
2017-10-14T05:18:02.884Z,15.78
2017-10-14T05:19:09.443Z,15.77
2017-10-14T05:20:15.204Z,15.76
2017-10-14T05:21:21.761Z,15.76
2017-10-14T05:22:28.100Z,15.74
2017-10-14T05:23:35.368Z,15.74
2017-10-14T05:24:41.146Z,15.72
2017-10-14T05:25:47.674Z,15.72
2017-10-14T05:26:53.465Z,15.70
2017-10-14T05:27:59.235Z,15.72
2017-10-14T05:29:05.005Z,15.73
2017-10-14T05:30:10.766Z,15.74
2017-10-14T05:31:16.348Z,15.81
2017-10-14T05:32:21.957Z,15.86
2017-10-14T05:33:27.732Z,15.85
2017-10-14T05:34:33.501Z,15.87
2017-10-14T05:35:39.260Z,15.89
2017-10-14T05:36:45.812Z,15.91
2017-10-14T05:37:52.377Z,15.90
2017-10-14T05:38:58.901Z,15.86
2017-10-14T05:40:04.483Z,15.84
2017-10-14T05:41:11.004Z,15.86
2017-10-14T05:42:16.772Z,15.90
2017-10-14T05:43:23.324Z,15.90
2017-10-14T05:44:29.923Z,15.88
2017-10-14T05:45:35.677Z,15.90
2017-10-14T05:46:41.449Z,15.93
2017-10-14T05:47:47.212Z,15.93
2017-10-14T05:48:52.996Z,15.88
2017-10-14T05:49:58.760Z,15.88
2017-10-14T05:51:04.525Z,15.91
2017-10-14T05:52:10.365Z,15.91
2017-10-14T05:53:16.397Z,15.89
2017-10-14T05:54:22.190Z,15.86
2017-10-14T05:55:28.725Z,15.92
2017-10-14T05:56:35.306Z,15.88
2017-10-14T05:57:41.828Z,15.93
2017-10-14T05:58:48.367Z,16.00
2017-10-14T05:59:54.156Z,16.00
2017-10-14T06:01:00.694Z,16.00
2017-10-14T06:02:06.113Z,15.99
2017-10-14T06:03:11.872Z,15.96
2017-10-14T06:04:17.637Z,15.99
2017-10-14T06:05:23.791Z,16.01
2017-10-14T06:06:30.324Z,16.03
2017-10-14T06:07:35.915Z,15.98
2017-10-14T06:08:41.684Z,16.02
2017-10-14T06:09:47.447Z,16.01
2017-10-14T06:10:53.041Z,16.01
2017-10-14T06:11:58.841Z,16.03
2017-10-14T06:13:04.605Z,16.00
2017-10-14T06:14:10.372Z,16.01
2017-10-14T06:15:16.142Z,15.99
2017-10-14T06:16:22.048Z,16.02
2017-10-14T06:17:27.807Z,16.00
2017-10-14T06:18:33.569Z,15.99
2017-10-14T06:19:39.127Z,15.99
2017-10-14T06:20:45.657Z,16.02
2017-10-14T06:21:51.441Z,15.99
2017-10-14T06:22:57.972Z,15.99
2017-10-14T06:24:03.732Z,16.00
2017-10-14T06:25:10.277Z,15.98
2017-10-14T06:26:16.096Z,15.93
2017-10-14T06:27:21.888Z,15.89
2017-10-14T06:28:28.418Z,15.84
2017-10-14T06:29:34.177Z,15.82
2017-10-14T06:30:40.717Z,15.75
2017-10-14T06:31:46.489Z,15.78
2017-10-14T06:32:52.307Z,15.78
2017-10-14T06:33:58.076Z,15.74
2017-10-14T06:35:04.613Z,15.76
2017-10-14T06:36:11.139Z,15.75
2017-10-14T06:37:16.919Z,15.76
2017-10-14T06:38:22.709Z,15.79
2017-10-14T06:39:28.477Z,15.80
2017-10-14T06:40:34.237Z,15.79
2017-10-14T06:41:40.007Z,15.80
2017-10-14T06:42:46.551Z,15.85
2017-10-14T06:43:52.353Z,15.83
2017-10-14T06:44:58.101Z,15.80
2017-10-14T06:46:03.861Z,15.83
2017-10-14T06:47:09.629Z,15.84
2017-10-14T06:48:15.985Z,15.85
2017-10-14T06:49:22.541Z,15.87
2017-10-14T06:50:28.888Z,15.87
2017-10-14T06:51:34.469Z,15.90
2017-10-14T06:52:40.236Z,15.91
2017-10-14T06:53:46.019Z,15.91
2017-10-14T06:54:52.573Z,15.94
2017-10-14T06:55:59.100Z,15.95
2017-10-14T06:57:04.864Z,15.95
2017-10-14T06:58:10.630Z,15.98
2017-10-14T06:59:17.163Z,15.99
2017-10-14T07:00:24.448Z,16.02
2017-10-14T07:01:30.216Z,16.06
2017-10-14T07:02:36.745Z,16.08
2017-10-14T07:03:42.573Z,16.09
2017-10-14T07:04:48.374Z,16.11
2017-10-14T07:05:54.156Z,16.08
2017-10-14T07:06:59.928Z,16.11
2017-10-14T07:08:06.469Z,16.15
2017-10-14T07:09:12.226Z,16.18
2017-10-14T07:10:17.993Z,16.21
2017-10-14T07:11:23.788Z,16.22
2017-10-14T07:12:30.320Z,16.24
2017-10-14T07:13:36.084Z,16.24
2017-10-14T07:14:41.853Z,16.27
2017-10-14T07:15:48.423Z,16.26
2017-10-14T07:16:54.985Z,16.28
2017-10-14T07:18:01.597Z,16.33
2017-10-14T07:19:07.368Z,16.31
2017-10-14T07:20:14.640Z,16.38
2017-10-14T07:21:21.190Z,16.38
2017-10-14T07:22:27.457Z,16.41
2017-10-14T07:23:33.234Z,16.50
2017-10-14T07:24:39.299Z,16.51
2017-10-14T07:25:45.110Z,16.55
2017-10-14T07:26:51.180Z,16.64
2017-10-14T07:27:56.948Z,16.68
2017-10-14T07:29:02.765Z,16.81
2017-10-14T07:30:08.636Z,16.85
2017-10-14T07:31:15.094Z,16.95
2017-10-14T07:32:20.859Z,17.13
2017-10-14T07:33:26.806Z,17.33
2017-10-14T07:34:32.959Z,17.66
2017-10-14T07:35:38.736Z,18.09
2017-10-14T07:36:44.537Z,18.56
2017-10-14T07:37:50.361Z,19.05
2017-10-14T07:38:56.136Z,19.54
2017-10-14T07:40:01.952Z,20.01
2017-10-14T07:41:07.731Z,20.49
2017-10-14T07:42:14.073Z,20.91
2017-10-14T07:43:19.848Z,21.32
2017-10-14T07:44:26.433Z,21.73
2017-10-14T07:45:32.014Z,22.10
2017-10-14T07:46:37.805Z,22.47
2017-10-14T07:47:43.631Z,22.75
2017-10-14T07:48:50.150Z,23.12
2017-10-14T07:49:55.966Z,23.43
2017-10-14T07:51:01.715Z,23.71
2017-10-14T07:52:07.474Z,23.93
2017-10-14T07:53:13.253Z,24.14
2017-10-14T07:54:19.783Z,24.36
2017-10-14T07:55:25.569Z,24.47
2017-10-14T07:56:31.410Z,24.38
2017-10-14T07:57:37.951Z,24.23
2017-10-14T07:58:44.483Z,24.01
2017-10-14T07:59:50.251Z,23.63
2017-10-14T08:00:56.797Z,23.75
2017-10-14T08:02:02.554Z,23.58
2017-10-14T08:03:09.090Z,23.78
2017-10-14T08:04:14.844Z,24.11
2017-10-14T08:05:21.377Z,24.57
2017-10-14T08:06:27.066Z,24.95
2017-10-14T08:07:33.815Z,25.16
2017-10-14T08:08:39.585Z,25.40
2017-10-14T08:09:45.705Z,25.76
2017-10-14T08:10:51.320Z,26.12
2017-10-14T08:11:57.090Z,26.64
2017-10-14T08:13:03.437Z,27.20
2017-10-14T08:14:09.909Z,27.42
2017-10-14T08:15:16.449Z,27.73
2017-10-14T08:16:22.194Z,27.27
2017-10-14T08:17:27.973Z,27.12
2017-10-14T08:18:33.721Z,26.61
2017-10-14T08:19:39.476Z,26.49
2017-10-14T08:20:45.244Z,26.32
2017-10-14T08:21:50.988Z,25.93
2017-10-14T08:22:56.764Z,25.69
2017-10-14T08:24:03.287Z,25.25
2017-10-14T08:25:09.079Z,24.89
2017-10-14T08:26:15.660Z,24.66
2017-10-14T08:27:21.433Z,24.24
2017-10-14T08:28:27.228Z,23.88
2017-10-14T08:29:33.008Z,23.66
2017-10-14T08:30:38.760Z,23.54
2017-10-14T08:31:44.506Z,23.59
2017-10-14T08:32:50.291Z,23.71
2017-10-14T08:33:56.829Z,23.83
2017-10-14T08:35:03.372Z,24.19
2017-10-14T08:36:09.970Z,24.49
2017-10-14T08:37:15.699Z,24.76
2017-10-14T08:38:22.219Z,25.18
2017-10-14T08:39:27.994Z,25.54
2017-10-14T08:40:34.549Z,25.92
2017-10-14T08:41:40.298Z,26.08
2017-10-14T08:42:46.800Z,26.35
2017-10-14T08:43:52.592Z,26.53
2017-10-14T08:44:59.860Z,26.89
2017-10-14T08:46:05.611Z,27.01
2017-10-14T08:47:12.144Z,27.14
2017-10-14T08:48:17.892Z,27.19
2017-10-14T08:49:23.637Z,27.14
2017-10-14T08:50:30.184Z,27.25
2017-10-14T08:51:35.961Z,27.37
2017-10-14T08:52:42.495Z,27.63
2017-10-14T08:53:48.236Z,27.75
2017-10-14T08:54:53.985Z,27.73
2017-10-14T08:55:59.748Z,27.59
2017-10-14T08:57:06.253Z,27.71
2017-10-14T08:58:12.000Z,27.91
2017-10-14T08:59:17.736Z,28.24
2017-10-14T09:00:23.548Z,28.42
2017-10-14T09:01:29.904Z,28.57
2017-10-14T09:02:35.689Z,28.69
2017-10-14T09:03:41.434Z,28.64
2017-10-14T09:04:47.185Z,28.76
2017-10-14T09:05:52.967Z,28.78
2017-10-14T09:06:59.504Z,28.61
2017-10-14T09:08:06.025Z,28.82
2017-10-14T09:09:11.770Z,28.86
2017-10-14T09:10:17.567Z,28.65
2017-10-14T09:11:23.633Z,28.61
2017-10-14T09:12:29.407Z,28.43
2017-10-14T09:13:35.154Z,28.66
2017-10-14T09:14:40.896Z,28.66
2017-10-14T09:15:46.650Z,28.85
2017-10-14T09:16:53.157Z,29.02
2017-10-14T09:17:58.932Z,28.87
2017-10-14T09:19:04.693Z,28.94
2017-10-14T09:20:10.424Z,28.95
2017-10-14T09:21:16.173Z,29.11
2017-10-14T09:22:21.942Z,29.31
2017-10-14T09:23:28.482Z,29.56
2017-10-14T09:24:34.814Z,29.50
2017-10-14T09:25:40.373Z,29.38
2017-10-14T09:26:46.711Z,29.56
2017-10-14T09:27:52.252Z,29.73
2017-10-14T09:28:57.860Z,29.76
2017-10-14T09:30:03.431Z,29.92
2017-10-14T09:31:09.212Z,29.93
2017-10-14T09:32:14.773Z,29.98
2017-10-14T09:33:20.543Z,29.61
2017-10-14T09:34:26.160Z,29.30
2017-10-14T09:35:31.727Z,29.08
2017-10-14T09:36:37.087Z,28.78
2017-10-14T09:37:43.416Z,28.57
2017-10-14T09:38:49.172Z,28.39
2017-10-14T09:39:55.728Z,28.48
2017-10-14T09:41:02.241Z,28.32
2017-10-14T09:42:07.994Z,28.04
2017-10-14T09:43:13.768Z,27.61
2017-10-14T09:44:19.552Z,27.63
2017-10-14T09:45:25.334Z,27.69
2017-10-14T09:46:31.080Z,27.85
2017-10-14T09:47:38.341Z,27.87
2017-10-14T09:48:44.127Z,27.50
2017-10-14T09:49:50.637Z,27.45
2017-10-14T09:50:56.414Z,27.47
2017-10-14T09:52:02.164Z,27.23
2017-10-14T09:53:08.680Z,26.95
2017-10-14T09:54:14.433Z,26.99
2017-10-14T09:55:20.184Z,27.23
2017-10-14T09:56:25.964Z,27.51
2017-10-14T09:57:31.717Z,27.63
2017-10-14T09:58:37.475Z,27.53
2017-10-14T09:59:43.220Z,27.46
2017-10-14T10:00:48.964Z,27.29
2017-10-14T10:01:54.739Z,27.24
2017-10-14T10:03:01.257Z,27.05
2017-10-14T10:04:07.009Z,26.82
2017-10-14T10:05:12.612Z,26.54
2017-10-14T10:06:18.352Z,26.61
2017-10-14T10:07:24.128Z,26.74
2017-10-14T10:08:29.889Z,26.80
2017-10-14T10:09:35.637Z,26.89
2017-10-14T10:10:42.147Z,27.02
2017-10-14T10:11:47.902Z,26.66
2017-10-14T10:12:53.677Z,26.45
2017-10-14T10:14:00.946Z,26.32
2017-10-14T10:15:06.699Z,26.09
2017-10-14T10:16:13.568Z,25.88
2017-10-14T10:17:19.318Z,25.69
2017-10-14T10:18:25.142Z,25.54
2017-10-14T10:19:30.992Z,25.27
2017-10-14T10:20:36.767Z,25.34
2017-10-14T10:21:43.282Z,25.38
2017-10-14T10:22:49.079Z,25.31
2017-10-14T10:23:54.840Z,25.41
2017-10-14T10:25:00.596Z,25.52
2017-10-14T10:26:06.345Z,25.65
2017-10-14T10:27:12.144Z,25.85
2017-10-14T10:28:17.756Z,25.97
2017-10-14T10:29:24.139Z,25.87
2017-10-14T10:30:29.895Z,25.85
2017-10-14T10:31:35.662Z,25.69
2017-10-14T10:32:41.259Z,25.86
2017-10-14T10:33:47.006Z,25.47
2017-10-14T10:34:53.148Z,25.60
2017-10-14T10:35:59.655Z,25.75
2017-10-14T10:37:05.453Z,25.71
2017-10-14T10:38:11.229Z,25.69
2017-10-14T10:39:16.986Z,25.51
2017-10-14T10:40:22.765Z,25.28
2017-10-14T10:41:29.280Z,25.25
2017-10-14T10:42:35.038Z,24.93
2017-10-14T10:43:40.776Z,24.75
2017-10-14T10:44:48.031Z,24.78
2017-10-14T10:45:53.833Z,24.84
2017-10-14T10:47:00.348Z,24.76
2017-10-14T10:48:06.093Z,24.78
2017-10-14T10:49:11.855Z,24.63
2017-10-14T10:50:17.389Z,24.61
2017-10-14T10:51:23.744Z,24.25
2017-10-14T10:52:30.257Z,24.24
2017-10-14T10:53:35.999Z,24.29
2017-10-14T10:54:41.754Z,24.04
2017-10-14T10:55:47.522Z,23.96
2017-10-14T10:56:54.114Z,23.84
2017-10-14T10:57:59.724Z,23.90
2017-10-14T10:59:06.256Z,23.82
2017-10-14T11:00:12.046Z,23.86
2017-10-14T11:01:18.779Z,23.85
2017-10-14T11:02:24.561Z,23.86
2017-10-14T11:04:29.332Z,23.72
2017-10-14T11:05:35.086Z,23.61
2017-10-14T11:06:40.840Z,23.48
2017-10-14T11:07:47.553Z,23.44
2017-10-14T11:08:53.357Z,23.49
2017-10-14T11:09:59.890Z,23.56
2017-10-14T11:11:05.654Z,23.60
2017-10-14T11:12:12.357Z,23.47
2017-10-14T11:13:18.391Z,23.39
2017-10-14T11:14:24.455Z,23.27
2017-10-14T11:15:30.517Z,23.27
2017-10-14T11:16:38.536Z,23.05
2017-10-14T11:17:44.531Z,23.00
2017-10-14T11:18:50.477Z,23.08
2017-10-14T11:19:56.292Z,23.13
2017-10-14T11:21:02.048Z,23.06
2017-10-14T11:22:08.561Z,23.07
2017-10-14T11:23:14.364Z,23.02
2017-10-14T11:24:20.166Z,22.93
2017-10-14T11:25:25.908Z,22.89
2017-10-14T11:26:31.762Z,22.71
2017-10-14T11:27:37.513Z,22.84
2017-10-14T11:28:44.069Z,22.79
2017-10-14T11:29:50.648Z,22.80
2017-10-14T11:30:57.162Z,22.75
2017-10-14T11:32:03.343Z,22.77
2017-10-14T11:33:09.866Z,22.75
2017-10-14T11:34:15.616Z,22.70
2017-10-14T11:35:21.409Z,22.68
2017-10-14T11:36:27.168Z,22.79
2017-10-14T11:37:32.916Z,22.89
2017-10-14T11:38:38.660Z,22.93
2017-10-14T11:39:44.420Z,23.01
2017-10-14T11:40:50.209Z,22.93
2017-10-14T11:41:55.957Z,22.96
2017-10-14T11:43:02.533Z,22.84
2017-10-14T11:44:08.297Z,22.83
2017-10-14T11:45:14.531Z,22.80
2017-10-14T11:46:20.340Z,22.88
2017-10-14T11:47:26.897Z,23.03
2017-10-14T11:48:34.245Z,23.14
2017-10-14T11:49:39.996Z,23.24
2017-10-14T11:50:47.273Z,23.24
2017-10-14T11:51:53.706Z,23.20
2017-10-14T11:52:59.453Z,23.22
2017-10-14T11:54:05.207Z,23.24
2017-10-14T11:55:11.403Z,23.29
2017-10-14T11:56:17.193Z,23.33
2017-10-14T11:57:23.004Z,23.32
2017-10-14T11:58:28.764Z,23.42
2017-10-14T11:59:34.516Z,23.40
2017-10-14T12:00:40.415Z,23.38
2017-10-14T12:01:46.178Z,23.48
2017-10-14T12:02:51.985Z,23.51
2017-10-14T12:03:58.518Z,23.56
2017-10-14T12:05:04.278Z,23.40
2017-10-14T12:06:10.872Z,23.31
2017-10-14T12:07:16.627Z,23.28
2017-10-14T12:08:22.420Z,23.27
2017-10-14T12:09:28.943Z,23.23
2017-10-14T12:10:34.693Z,23.17
2017-10-14T12:11:40.447Z,23.13
2017-10-14T12:12:46.225Z,23.23
2017-10-14T12:13:52.002Z,23.18
2017-10-14T12:14:57.760Z,23.14
2017-10-14T12:16:03.510Z,23.25
2017-10-14T12:17:09.296Z,23.34
2017-10-14T12:18:15.113Z,23.39
2017-10-14T12:19:20.908Z,23.48
2017-10-14T12:20:26.713Z,23.50
2017-10-14T12:21:33.224Z,23.50
2017-10-14T12:22:44.769Z,23.46
2017-10-14T12:23:50.518Z,23.39
2017-10-14T12:24:57.064Z,23.51
2017-10-14T12:26:02.619Z,23.60
2017-10-14T12:27:08.368Z,23.63
2017-10-14T12:28:14.901Z,23.60
2017-10-14T12:29:20.664Z,23.56
2017-10-14T12:30:26.338Z,23.50
2017-10-14T12:31:32.843Z,23.51
2017-10-14T12:32:38.602Z,23.57
2017-10-14T12:33:44.374Z,23.65
2017-10-14T12:34:50.528Z,23.75
2017-10-14T12:35:56.316Z,23.77
2017-10-14T12:37:02.061Z,23.70
2017-10-14T12:38:07.813Z,23.71
2017-10-14T12:39:13.606Z,23.73
2017-10-14T12:40:19.367Z,23.64
2017-10-14T12:41:28.501Z,23.58
2017-10-14T12:42:34.243Z,23.56
2017-10-14T12:43:40.067Z,23.53
2017-10-14T12:44:45.822Z,23.63
2017-10-14T12:45:51.597Z,23.70
2017-10-14T12:46:57.170Z,23.61
2017-10-14T12:48:04.737Z,23.66
2017-10-14T12:49:10.485Z,23.58
2017-10-14T12:50:16.362Z,23.58
2017-10-14T12:51:22.114Z,23.58
2017-10-14T12:52:27.904Z,23.63
2017-10-14T12:53:33.652Z,23.66
2017-10-14T12:54:39.401Z,23.74
2017-10-14T12:55:45.169Z,23.89
2017-10-14T12:56:50.922Z,23.95
2017-10-14T12:57:56.697Z,23.96
2017-10-14T12:59:02.442Z,24.03
2017-10-14T13:00:08.183Z,24.09
2017-10-14T13:01:13.934Z,24.11
2017-10-14T13:02:20.446Z,24.11
2017-10-14T13:03:26.240Z,24.14
2017-10-14T13:04:32.029Z,23.97
2017-10-14T13:05:37.594Z,23.89
2017-10-14T13:06:43.344Z,23.87
2017-10-14T13:07:48.935Z,23.88
2017-10-14T13:08:55.481Z,24.01
2017-10-14T13:10:01.998Z,23.97
2017-10-14T13:11:07.750Z,23.88
2017-10-14T13:12:13.509Z,23.98
2017-10-14T13:13:19.689Z,24.03
2017-10-14T13:14:26.067Z,23.99
2017-10-14T13:15:31.890Z,24.02
2017-10-14T13:16:37.697Z,24.02
2017-10-14T13:17:43.505Z,24.07
2017-10-14T13:18:49.443Z,24.11
2017-10-14T13:19:55.290Z,24.21
2017-10-14T13:21:01.033Z,24.28
2017-10-14T13:22:06.800Z,24.19
2017-10-14T13:23:12.549Z,24.24
2017-10-14T13:24:18.328Z,24.25
2017-10-14T13:25:24.136Z,24.27
2017-10-14T13:26:30.177Z,24.36
2017-10-14T13:27:36.710Z,24.35
2017-10-14T13:28:42.460Z,24.31
2017-10-14T13:29:48.224Z,24.18
2017-10-14T13:30:54.032Z,24.16
2017-10-14T13:31:59.777Z,24.19
2017-10-14T13:33:05.613Z,24.22
2017-10-14T13:34:12.186Z,24.02
2017-10-14T13:35:17.942Z,24.02
2017-10-14T13:36:24.804Z,24.18
2017-10-14T13:37:30.558Z,24.34
2017-10-14T13:38:37.076Z,24.34
2017-10-14T13:39:42.401Z,24.36
2017-10-14T13:40:48.155Z,24.22
2017-10-14T13:41:53.932Z,24.25
2017-10-14T13:42:59.507Z,24.25
2017-10-14T13:44:06.533Z,24.27
2017-10-14T13:45:12.296Z,24.37
2017-10-14T13:46:18.053Z,24.44
2017-10-14T13:47:24.465Z,24.47
2017-10-14T13:48:30.231Z,24.41
2017-10-14T13:49:36.018Z,24.36
2017-10-14T13:50:41.775Z,24.26
2017-10-14T13:51:47.336Z,24.35
2017-10-14T13:52:53.116Z,24.43
2017-10-14T13:53:59.645Z,24.53
2017-10-14T13:55:05.413Z,24.58
2017-10-14T13:56:12.749Z,24.57
2017-10-14T13:57:18.491Z,24.52
2017-10-14T13:58:24.699Z,24.40
2017-10-14T13:59:31.233Z,24.39
2017-10-14T14:00:36.986Z,24.48
2017-10-14T14:01:43.508Z,24.52
2017-10-14T14:02:49.276Z,24.50
2017-10-14T14:03:55.063Z,24.54
2017-10-14T14:05:00.826Z,24.48
2017-10-14T14:06:06.585Z,24.47
2017-10-14T14:07:12.336Z,24.35
2017-10-14T14:08:18.089Z,24.27
2017-10-14T14:09:24.442Z,24.39
2017-10-14T14:10:31.047Z,24.34